Time;durP1;ratioP1;P1;durP2;ratioP2;P2;SDS_P1;SDS_P2;PMS_P1;PMS_P2;Temp;Humidity;BMP_temperature;BMP_pressure;BME280_temperature;BME280_humidity;BME280_pressure;Samples;Min_cycle;Max_cycle;Signal;HPM_P1;HPM_P2
2023/11/16 00:01:27;;;;;;;22.23;11.33;;;;;;;;;;4389073;32;319279;-83
2023/11/16 00:03:54;;;;;;;24.17;12.70;;;;;;;;;;4399334;32;318990;-83
2023/11/16 00:06:21;;;;;;;23.00;14.07;;;;;;;;;;4388702;32;319345;-85
2023/11/16 00:08:49;;;;;;;20.87;11.70;;;;;;;;;;4398768;32;319116;-83
2023/11/16 00:11:17;;;;;;;18.53;12.50;;;;;;;;;;4389729;32;319382;-83
2023/11/16 00:13:46;;;;;;;25.97;13.57;;;;;;;;;;4399546;32;318696;-85
2023/11/16 00:16:13;;;;;;;22.87;14.50;;;;;;;;;;4391864;32;319090;-83
2023/11/16 00:18:41;;;;;;;21.57;12.90;;;;;;;;;;4400759;32;318737;-80
2023/11/16 00:21:08;;;;;;;23.87;14.50;;;;;;;;;;4393889;32;319231;-82
2023/11/16 00:23:35;;;;;;;18.37;11.37;;;;;;;;;;4402519;32;319330;-83
2023/11/16 00:26:04;;;;;;;17.83;11.33;;;;;;;;;;4400611;32;319259;-84
2023/11/16 00:28:30;;;;;;;18.37;11.30;;;;;;;;;;4389944;32;319091;-85
2023/11/16 00:30:57;;;;;;;15.50;10.47;;;;;;;;;;4398800;32;319513;-84
2023/11/16 00:33:25;;;;;;;13.90;8.87;;;;;;;;;;4388402;32;319159;-83
2023/11/16 00:35:55;;;;;;;17.27;8.73;;;;;;;;;;4398584;32;318493;-83
2023/11/16 00:38:22;;;;;;;15.00;8.77;;;;;;;;;;4389248;32;318099;-84
2023/11/16 00:40:50;;;;;;;11.20;7.37;;;;;;;;;;4399669;32;318178;-84
2023/11/16 00:43:18;;;;;;;15.90;9.00;;;;;;;;;;4389465;32;318222;-82
2023/11/16 00:45:45;;;;;;;12.50;8.37;;;;;;;;;;4406175;32;318196;-83
2023/11/16 00:48:11;;;;;;;16.27;9.33;;;;;;;;;;4398544;32;318365;-86
2023/11/16 00:50:39;;;;;;;13.97;9.27;;;;;;;;;;4391512;32;323800;-86
2023/11/16 00:53:06;;;;;;;14.43;9.50;;;;;;;;;;4388738;32;318189;-84
2023/11/16 00:55:32;;;;;;;11.33;6.90;;;;;;;;;;4399352;32;317498;-83
2023/11/16 00:58:00;;;;;;;15.17;8.73;;;;;;;;;;4397823;32;318560;-83
2023/11/16 01:00:31;;;;;;;11.13;7.13;;;;;;;;;;4385295;32;418989;-84
2023/11/16 01:02:59;;;;;;;10.07;6.87;;;;;;;;;;4399684;32;318521;-83
2023/11/16 01:05:26;;;;;;;12.87;6.83;;;;;;;;;;4388228;32;318215;-83
2023/11/16 01:07:53;;;;;;;10.37;6.67;;;;;;;;;;4397612;32;318060;-84
2023/11/16 01:10:24;;;;;;;11.07;7.23;;;;;;;;;;4388856;32;318603;-85
2023/11/16 01:12:51;;;;;;;10.07;5.13;;;;;;;;;;4399462;32;317734;-84
2023/11/16 01:15:18;;;;;;;13.30;4.57;;;;;;;;;;4387870;32;318770;-83
2023/11/16 01:17:48;;;;;;;7.10;4.50;;;;;;;;;;4398552;32;318255;-84
2023/11/16 01:20:19;;;;;;;13.40;7.43;;;;;;;;;;4387610;32;316670;-83
2023/11/16 01:23:00;;;;;;;6.10;3.47;;;;;;;;;;4396972;32;344726;-84
2023/11/16 01:25:27;;;;;;;8.93;3.90;;;;;;;;;;4369766;32;416445;-84
2023/11/16 01:27:57;;;;;;;4.67;3.50;;;;;;;;;;4384115;32;316591;-84
2023/11/16 01:30:24;;;;;;;4.20;3.00;;;;;;;;;;4379962;32;317277;-84
2023/11/16 01:32:52;;;;;;;5.00;3.30;;;;;;;;;;4399343;32;317170;-84
2023/11/16 01:35:21;;;;;;;5.67;3.37;;;;;;;;;;4388060;32;317252;-84
2023/11/16 01:37:48;;;;;;;4.50;3.43;;;;;;;;;;4398887;32;316968;-84
2023/11/16 01:40:15;;;;;;;6.80;3.80;;;;;;;;;;4388862;32;317062;-85
2023/11/16 01:42:42;;;;;;;9.73;5.30;;;;;;;;;;4398773;32;328413;-86
2023/11/16 01:45:30;;;;;;;7.10;4.00;;;;;;;;;;4388626;32;317183;-83
2023/11/16 01:48:01;;;;;;;5.93;3.67;;;;;;;;;;4399298;32;317246;-84
2023/11/16 01:50:30;;;;;;;6.97;4.47;;;;;;;;;;4384736;32;415911;-83
2023/11/16 01:53:04;;;;;;;5.63;3.77;;;;;;;;;;4399122;32;316506;-83
2023/11/16 01:55:32;;;;;;;5.13;3.50;;;;;;;;;;4386038;32;418032;-84
2023/11/16 01:58:02;;;;;;;11.47;3.87;;;;;;;;;;4402573;32;352570;-84
2023/11/16 02:00:29;;;;;;;8.93;3.47;;;;;;;;;;4400629;32;417889;-83
2023/11/16 02:02:58;;;;;;;5.10;3.67;;;;;;;;;;4412740;32;317279;-83
2023/11/16 02:05:27;;;;;;;7.87;3.93;;;;;;;;;;4402681;32;320853;-83
2023/11/16 02:07:54;;;;;;;8.70;5.27;;;;;;;;;;4401552;32;316393;-83
2023/11/16 02:10:20;;;;;;;10.27;6.77;;;;;;;;;;4387488;32;317424;-83
2023/11/16 02:12:52;;;;;;;9.00;6.80;;;;;;;;;;4397337;32;318184;-83
2023/11/16 02:15:19;;;;;;;11.87;7.60;;;;;;;;;;4387866;32;335799;-85
2023/11/16 02:17:46;;;;;;;11.57;6.60;;;;;;;;;;4398580;32;318266;-85
2023/11/16 02:20:12;;;;;;;13.00;7.00;;;;;;;;;;4388326;32;318360;-85
2023/11/16 02:22:41;;;;;;;11.13;6.93;;;;;;;;;;4396988;32;318183;-84
2023/11/16 02:25:12;;;;;;;6.90;4.60;;;;;;;;;;4386667;32;317729;-84
2023/11/16 02:27:41;;;;;;;8.27;5.47;;;;;;;;;;4398396;32;316351;-85
2023/11/16 02:30:09;;;;;;;5.13;3.43;;;;;;;;;;4387962;32;316692;-84
2023/11/16 02:32:36;;;;;;;3.87;2.97;;;;;;;;;;4397410;32;319220;-84
2023/11/16 02:35:03;;;;;;;4.50;2.80;;;;;;;;;;4388626;32;317179;-84
2023/11/16 02:37:30;;;;;;;4.97;2.93;;;;;;;;;;4397779;32;317263;-84
2023/11/16 02:39:58;;;;;;;3.30;2.37;;;;;;;;;;4398152;32;317054;-84
2023/11/16 02:42:27;;;;;;;4.10;2.87;;;;;;;;;;4386823;32;317115;-83
2023/11/16 02:44:57;;;;;;;7.00;4.93;;;;;;;;;;4396806;32;316742;-83
2023/11/16 02:47:24;;;;;;;5.13;3.17;;;;;;;;;;4388117;32;317291;-84
2023/11/16 02:49:52;;;;;;;12.97;7.30;;;;;;;;;;4384422;32;316683;-84
2023/11/16 02:52:20;;;;;;;17.90;9.20;;;;;;;;;;4387773;32;318331;-84
2023/11/16 02:54:47;;;;;;;11.57;6.67;;;;;;;;;;4397607;32;318611;-84
2023/11/16 02:57:14;;;;;;;4.80;3.37;;;;;;;;;;4387141;32;331249;-84
2023/11/16 02:59:45;;;;;;;7.73;3.63;;;;;;;;;;4398040;32;317179;-83
2023/11/16 03:02:14;;;;;;;6.77;3.30;;;;;;;;;;4386859;32;317078;-84
2023/11/16 03:04:41;;;;;;;9.23;3.93;;;;;;;;;;4396845;32;317344;-85
2023/11/16 03:07:08;;;;;;;7.87;4.80;;;;;;;;;;4387489;32;317072;-83
2023/11/16 03:09:35;;;;;;;5.20;4.27;;;;;;;;;;4397733;32;317057;-83
2023/11/16 03:12:02;;;;;;;5.67;4.17;;;;;;;;;;4388878;32;317170;-85
2023/11/16 03:14:28;;;;;;;11.70;4.60;;;;;;;;;;4397371;32;316666;-83
2023/11/16 03:16:57;;;;;;;8.27;5.33;;;;;;;;;;4397248;32;318439;-86
2023/11/16 03:19:24;;;;;;;6.93;5.47;;;;;;;;;;4387707;32;317137;-83
2023/11/16 03:21:51;;;;;;;8.17;4.60;;;;;;;;;;4397574;32;317099;-86
2023/11/16 03:24:18;;;;;;;6.40;5.10;;;;;;;;;;4387452;32;317070;-84
2023/11/16 03:26:45;;;;;;;8.33;4.50;;;;;;;;;;4396422;32;317460;-84
2023/11/16 03:29:11;;;;;;;6.83;4.10;;;;;;;;;;4386403;32;317220;-83
2023/11/16 03:31:40;;;;;;;7.03;4.10;;;;;;;;;;4396303;32;317494;-84
2023/11/16 03:34:08;;;;;;;6.43;4.53;;;;;;;;;;4386569;32;317339;-84
2023/11/16 03:36:35;;;;;;;7.80;5.80;;;;;;;;;;4397675;32;317302;-84
2023/11/16 03:39:04;;;;;;;9.97;6.43;;;;;;;;;;4392553;32;317751;-86
2023/11/16 03:41:30;;;;;;;8.03;5.93;;;;;;;;;;4396465;32;316527;-86
2023/11/16 03:43:57;;;;;;;8.97;6.30;;;;;;;;;;4396813;32;342636;-83
2023/11/16 03:46:24;;;;;;;8.43;5.33;;;;;;;;;;4387576;32;316232;-83
2023/11/16 03:48:51;;;;;;;9.23;6.80;;;;;;;;;;4398056;32;317389;-83
2023/11/16 03:51:19;;;;;;;7.40;5.77;;;;;;;;;;4375761;32;316622;-85
2023/11/16 03:53:45;;;;;;;10.07;6.00;;;;;;;;;;4381066;32;315392;-83
2023/11/16 03:56:12;;;;;;;9.43;5.80;;;;;;;;;;4369913;32;352247;-85
2023/11/16 03:58:39;;;;;;;4.53;4.00;;;;;;;;;;4391679;32;317212;-85
2023/11/16 04:01:06;;;;;;;9.57;4.90;;;;;;;;;;4387573;32;317302;-85
2023/11/16 04:03:34;;;;;;;10.10;4.80;;;;;;;;;;4397008;32;316396;-83
2023/11/16 04:06:01;;;;;;;8.23;4.90;;;;;;;;;;4394917;32;360115;-83
2023/11/16 04:08:29;;;;;;;6.50;4.67;;;;;;;;;;4384035;32;417399;-84
2023/11/16 04:10:57;;;;;;;6.77;4.50;;;;;;;;;;4397231;32;316637;-83
2023/11/16 04:13:24;;;;;;;6.03;4.57;;;;;;;;;;4387402;32;317242;-84
2023/11/16 04:15:53;;;;;;;6.40;4.50;;;;;;;;;;4398932;32;316922;-83
2023/11/16 04:18:21;;;;;;;8.53;4.77;;;;;;;;;;4388150;32;317093;-83
2023/11/16 04:20:47;;;;;;;9.17;6.20;;;;;;;;;;4401056;32;317229;-82
2023/11/16 04:23:14;;;;;;;17.60;12.00;;;;;;;;;;4397000;32;336535;-84
2023/11/16 04:25:42;;;;;;;30.10;16.20;;;;;;;;;;4404063;32;318696;-84
2023/11/16 04:28:10;;;;;;;29.30;18.97;;;;;;;;;;4387221;32;319318;-84
2023/11/16 04:30:37;;;;;;;29.33;18.17;;;;;;;;;;4397025;32;319276;-84
2023/11/16 04:33:06;;;;;;;31.57;15.43;;;;;;;;;;4387195;32;319328;-84
2023/11/16 04:35:33;;;;;;;23.40;16.07;;;;;;;;;;4399730;32;319569;-83
2023/11/16 04:38:03;;;;;;;15.20;11.30;;;;;;;;;;4398383;32;318474;-83
2023/11/16 04:40:30;;;;;;;18.63;11.03;;;;;;;;;;4384697;32;417924;-83
2023/11/16 04:42:58;;;;;;;16.07;10.30;;;;;;;;;;4399816;32;318397;-84
2023/11/16 04:45:26;;;;;;;17.37;11.13;;;;;;;;;;4389506;32;318570;-83
2023/11/16 04:47:57;;;;;;;18.37;11.80;;;;;;;;;;4399292;32;318781;-84
2023/11/16 04:50:27;;;;;;;13.10;9.13;;;;;;;;;;4388196;32;318746;-85
2023/11/16 04:52:54;;;;;;;11.57;8.27;;;;;;;;;;4399357;32;317245;-84
2023/11/16 04:55:23;;;;;;;7.70;6.20;;;;;;;;;;4388991;32;317500;-82
2023/11/16 04:57:50;;;;;;;8.70;6.53;;;;;;;;;;4398075;32;316499;-83
2023/11/16 05:00:18;;;;;;;14.60;8.43;;;;;;;;;;4387641;32;328302;-84
2023/11/16 05:02:46;;;;;;;8.87;6.60;;;;;;;;;;4399734;32;318448;-83
2023/11/16 05:05:13;;;;;;;13.07;6.77;;;;;;;;;;4389307;32;316290;-84
2023/11/16 05:07:40;;;;;;;29.80;13.00;;;;;;;;;;4397578;32;318258;-83
2023/11/16 05:10:10;;;;;;;37.03;17.77;;;;;;;;;;4386279;32;344779;-85
2023/11/16 05:12:39;;;;;;;24.30;13.33;;;;;;;;;;4399647;32;319526;-85
2023/11/16 05:15:07;;;;;;;26.00;12.47;;;;;;;;;;4387221;32;319674;-84
2023/11/16 05:17:35;;;;;;;22.57;12.97;;;;;;;;;;4397537;32;348673;-83
2023/11/16 05:20:03;;;;;;;18.20;11.73;;;;;;;;;;4389169;32;319370;-85
2023/11/16 05:22:30;;;;;;;17.47;11.07;;;;;;;;;;4398181;32;317607;-85
2023/11/16 05:24:56;;;;;;;17.10;12.17;;;;;;;;;;4397789;32;319410;-85
2023/11/16 05:27:26;;;;;;;29.30;16.20;;;;;;;;;;4388879;32;318366;-85
2023/11/16 05:29:53;;;;;;;25.60;17.43;;;;;;;;;;4398794;32;319206;-84
2023/11/16 05:32:20;;;;;;;26.53;17.47;;;;;;;;;;4388843;32;318901;-85
2023/11/16 05:34:48;;;;;;;27.07;18.30;;;;;;;;;;4398996;32;319320;-84
2023/11/16 05:37:15;;;;;;;35.23;19.70;;;;;;;;;;4388220;32;319251;-83
2023/11/16 05:39:42;;;;;;;29.23;18.27;;;;;;;;;;4398467;32;319399;-83
2023/11/16 05:42:09;;;;;;;30.10;15.73;;;;;;;;;;4387920;32;319051;-84
2023/11/16 05:44:36;;;;;;;25.67;18.37;;;;;;;;;;4398365;32;319345;-85
2023/11/16 05:47:03;;;;;;;27.67;18.83;;;;;;;;;;4387701;32;318284;-85
2023/11/16 05:49:30;;;;;;;34.73;22.73;;;;;;;;;;4398111;32;317851;-84
2023/11/16 05:52:02;;;;;;;29.97;18.97;;;;;;;;;;4397095;32;318601;-83
2023/11/16 05:54:28;;;;;;;33.87;20.83;;;;;;;;;;4370416;32;418848;-83
2023/11/16 05:56:55;;;;;;;36.07;22.23;;;;;;;;;;4398299;32;319284;-83
2023/11/16 05:59:22;;;;;;;49.57;24.07;;;;;;;;;;4387950;32;319855;-84
2023/11/16 06:01:49;;;;;;;43.33;25.30;;;;;;;;;;4396674;32;319567;-84
2023/11/16 06:04:15;;;;;;;50.00;25.70;;;;;;;;;;4386208;32;327478;-85
2023/11/16 06:06:42;;;;;;;37.60;23.43;;;;;;;;;;4397967;32;319394;-85
2023/11/16 06:09:10;;;;;;;61.47;30.90;;;;;;;;;;4387783;32;318856;-86
2023/11/16 06:11:37;;;;;;;54.33;29.47;;;;;;;;;;4398014;32;319313;-84
2023/11/16 06:14:08;;;;;;;41.07;27.70;;;;;;;;;;4388062;32;318259;-84
2023/11/16 06:16:34;;;;;;;45.30;30.43;;;;;;;;;;4395673;32;350163;-84
2023/11/16 06:19:01;;;;;;;55.10;32.93;;;;;;;;;;4397718;32;319430;-84
2023/11/16 06:21:29;;;;;;;58.27;31.33;;;;;;;;;;4384600;32;420169;-84
2023/11/16 06:23:56;;;;;;;50.80;29.90;;;;;;;;;;4397951;32;318743;-82
2023/11/16 06:26:25;;;;;;;81.57;43.97;;;;;;;;;;4387555;32;320040;-86
2023/11/16 06:28:51;;;;;;;74.57;45.13;;;;;;;;;;4396722;32;318823;-85
2023/11/16 06:31:20;;;;;;;51.60;32.67;;;;;;;;;;4387892;32;319053;-83
2023/11/16 06:33:46;;;;;;;59.67;36.70;;;;;;;;;;4397370;32;330243;-84
2023/11/16 06:36:13;;;;;;;51.07;33.23;;;;;;;;;;4386125;32;318741;-84
2023/11/16 06:38:40;;;;;;;58.17;35.87;;;;;;;;;;4397662;32;319635;-85
2023/11/16 06:41:07;;;;;;;82.40;47.03;;;;;;;;;;4386299;32;319597;-84
2023/11/16 06:43:35;;;;;;;97.07;55.40;;;;;;;;;;4397419;32;319410;-86
2023/11/16 06:46:02;;;;;;;102.00;59.93;;;;;;;;;;4387311;32;319576;-85
2023/11/16 06:48:30;;;;;;;102.77;62.83;;;;;;;;;;4393994;32;320616;-85
2023/11/16 06:50:58;;;;;;;102.30;60.87;;;;;;;;;;4394902;32;320446;-85
2023/11/16 06:53:26;;;;;;;84.73;56.83;;;;;;;;;;4385281;32;320448;-83
2023/11/16 06:55:53;;;;;;;72.40;49.27;;;;;;;;;;4393965;32;319731;-83
2023/11/16 06:58:22;;;;;;;68.63;43.77;;;;;;;;;;4384720;32;319489;-82
2023/11/16 07:00:51;;;;;;;60.37;36.10;;;;;;;;;;4395262;32;319481;-84
2023/11/16 07:03:19;;;;;;;78.70;52.97;;;;;;;;;;4386326;32;319091;-83
2023/11/16 07:05:46;;;;;;;93.37;58.00;;;;;;;;;;4395795;32;319713;-86
2023/11/16 07:08:13;;;;;;;84.97;56.03;;;;;;;;;;4385925;32;319653;-83
2023/11/16 07:10:40;;;;;;;83.27;50.93;;;;;;;;;;4395512;32;318745;-85
2023/11/16 07:13:13;;;;;;;83.27;52.63;;;;;;;;;;4386883;32;323249;-85
2023/11/16 07:15:40;;;;;;;80.87;49.47;;;;;;;;;;4396387;32;344395;-84
2023/11/16 07:18:08;;;;;;;77.57;46.63;;;;;;;;;;4384952;32;405044;-81
2023/11/16 07:20:36;;;;;;;83.77;53.50;;;;;;;;;;4397802;32;319718;-85
2023/11/16 07:23:03;;;;;;;88.30;52.53;;;;;;;;;;4383308;32;359209;-84
2023/11/16 07:25:30;;;;;;;90.20;65.83;;;;;;;;;;4392345;32;319604;-83
2023/11/16 07:27:58;;;;;;;63.67;42.77;;;;;;;;;;4387406;32;318768;-84
2023/11/16 07:30:26;;;;;;;58.50;39.37;;;;;;;;;;4384926;32;334148;-82
2023/11/16 07:32:53;;;;;;;40.40;28.87;;;;;;;;;;4395525;32;333585;-82
2023/11/16 07:35:23;;;;;;;38.70;25.57;;;;;;;;;;4389070;32;340831;-82
2023/11/16 07:37:50;;;;;;;60.03;38.43;;;;;;;;;;4398685;32;319261;-85
2023/11/16 07:40:18;;;;;;;64.57;42.33;;;;;;;;;;4371815;32;320001;-84
2023/11/16 07:42:46;;;;;;;33.87;21.80;;;;;;;;;;4389316;32;319449;-85
2023/11/16 07:45:15;;;;;;;25.00;16.40;;;;;;;;;;4372120;32;321285;-83
2023/11/16 07:47:42;;;;;;;25.53;16.40;;;;;;;;;;4401286;32;319262;-83
2023/11/16 07:50:12;;;;;;;28.90;17.10;;;;;;;;;;4396324;32;318586;-87
2023/11/16 07:52:47;;;;;;;29.13;15.00;;;;;;;;;;4396756;32;319240;-84
2023/11/16 07:55:18;;;;;;;19.77;13.43;;;;;;;;;;4386350;32;344825;-85
2023/11/16 07:57:47;;;;;;;15.30;11.30;;;;;;;;;;4398408;32;319492;-85
2023/11/16 08:00:16;;;;;;;15.43;11.70;;;;;;;;;;4386639;32;319448;-85
2023/11/16 08:05:37;;;;;;;19.57;13.37;;;;;;;;;;4387788;32;389232;-84
2023/11/16 08:08:07;;;;;;;22.00;13.83;;;;;;;;;;4387773;32;319313;-85
2023/11/16 08:10:34;;;;;;;23.13;17.60;;;;;;;;;;4390639;32;321215;-83
2023/11/16 08:13:02;;;;;;;20.80;14.87;;;;;;;;;;4400163;32;319442;-82
2023/11/16 08:15:29;;;;;;;23.40;17.50;;;;;;;;;;4366316;32;419181;-82
2023/11/16 08:17:55;;;;;;;22.43;16.37;;;;;;;;;;4405386;32;319217;-84
2023/11/16 08:20:23;;;;;;;22.80;14.17;;;;;;;;;;4400594;32;319382;-84
2023/11/16 08:22:52;;;;;;;13.23;10.67;;;;;;;;;;4414697;32;319072;-83
2023/11/16 08:25:22;;;;;;;14.03;9.13;;;;;;;;;;4388666;32;318963;-84
2023/11/16 08:27:50;;;;;;;27.77;18.47;;;;;;;;;;4398500;32;317762;-83
2023/11/16 08:30:17;;;;;;;15.97;10.07;;;;;;;;;;4376937;32;319473;-84
2023/11/16 08:32:45;;;;;;;14.60;10.23;;;;;;;;;;4398201;32;319419;-84
2023/11/16 08:35:13;;;;;;;17.00;10.30;;;;;;;;;;4384538;32;320035;-85
2023/11/16 08:37:41;;;;;;;14.47;9.73;;;;;;;;;;4393425;32;319346;-83
2023/11/16 08:40:09;;;;;;;25.23;14.33;;;;;;;;;;4378420;32;317651;-83
2023/11/16 08:42:41;;;;;;;24.07;15.13;;;;;;;;;;4399026;32;319058;-84
2023/11/16 08:45:17;;;;;;;18.80;13.13;;;;;;;;;;4390426;32;319262;-84
2023/11/16 08:47:45;;;;;;;18.77;12.30;;;;;;;;;;4397657;32;319231;-83
2023/11/16 08:50:13;;;;;;;12.73;9.30;;;;;;;;;;4387288;32;319174;-84
2023/11/16 08:52:42;;;;;;;13.87;10.73;;;;;;;;;;4399470;32;318051;-84
2023/11/16 08:55:11;;;;;;;13.60;9.37;;;;;;;;;;4387489;32;318620;-84
2023/11/16 08:57:40;;;;;;;11.87;8.27;;;;;;;;;;4398248;32;318135;-83
2023/11/16 09:02:51;;;;;;;12.63;7.83;;;;;;;;;;4397612;32;316773;-85
2023/11/16 09:05:18;;;;;;;7.00;3.30;;;;;;;;;;4382920;32;317629;-83
2023/11/16 09:07:45;;;;;;;3.17;2.13;;;;;;;;;;4386737;32;316786;-82
2023/11/16 09:10:13;;;;;;;2.80;2.17;;;;;;;;;;4386219;32;317296;-82
2023/11/16 09:12:42;;;;;;;12.77;7.00;;;;;;;;;;4386005;32;316336;-82
2023/11/16 09:15:10;;;;;;;4.17;3.37;;;;;;;;;;4370149;32;318519;-84
2023/11/16 09:17:37;;;;;;;2.27;1.93;;;;;;;;;;4379098;32;316333;-82
2023/11/16 09:20:10;;;;;;;3.90;2.17;;;;;;;;;;4378139;32;317300;-87
2023/11/16 09:22:38;;;;;;;2.37;1.97;;;;;;;;;;4385313;32;317303;-84
2023/11/16 09:25:07;;;;;;;3.07;2.20;;;;;;;;;;4383686;32;317662;-85
2023/11/16 09:27:35;;;;;;;4.30;3.33;;;;;;;;;;4396990;32;337756;-84
2023/11/16 09:30:06;;;;;;;3.00;2.23;;;;;;;;;;4383748;32;317170;-85
2023/11/16 09:32:32;;;;;;;1.30;1.10;;;;;;;;;;4391378;32;317234;-84
2023/11/16 09:35:00;;;;;;;3.27;2.20;;;;;;;;;;4398505;32;317774;-85
2023/11/16 09:37:27;;;;;;;1.37;1.20;;;;;;;;;;4400019;32;316434;-86
2023/11/16 09:39:56;;;;;;;2.57;1.50;;;;;;;;;;4399743;32;317201;-83
2023/11/16 09:42:26;;;;;;;3.80;1.33;;;;;;;;;;4394520;32;316446;-85
2023/11/16 09:44:58;;;;;;;2.67;2.10;;;;;;;;;;4391749;32;317402;-83
2023/11/16 09:47:29;;;;;;;2.97;1.20;;;;;;;;;;4382480;32;317448;-85
2023/11/16 09:49:56;;;;;;;3.37;1.70;;;;;;;;;;4380653;32;316719;-83
2023/11/16 09:52:23;;;;;;;3.90;1.50;;;;;;;;;;4379832;32;317388;-85
2023/11/16 09:54:52;;;;;;;3.97;1.90;;;;;;;;;;4395456;32;317119;-86
2023/11/16 09:57:20;;;;;;;5.03;1.50;;;;;;;;;;4383632;32;318263;-85
2023/11/16 09:59:52;;;;;;;4.33;2.03;;;;;;;;;;4382896;32;317697;-86
2023/11/16 10:02:23;;;;;;;1.73;1.00;;;;;;;;;;4383223;32;334500;-88
2023/11/16 10:04:53;;;;;;;2.10;1.83;;;;;;;;;;4395116;32;331678;-88
2023/11/16 10:07:20;;;;;;;2.73;1.53;;;;;;;;;;4386029;32;317246;-88
2023/11/16 10:09:47;;;;;;;2.13;1.30;;;;;;;;;;4390441;32;317382;-88
2023/11/16 10:12:14;;;;;;;1.17;1.07;;;;;;;;;;4384896;32;317105;-88
2023/11/16 10:14:50;;;;;;;1.57;1.10;;;;;;;;;;4397231;32;317405;-89
2023/11/16 10:17:17;;;;;;;3.93;2.33;;;;;;;;;;4387483;32;317187;-86
2023/11/16 10:19:44;;;;;;;2.20;1.63;;;;;;;;;;4395049;32;317422;-85
2023/11/16 10:22:12;;;;;;;2.10;1.80;;;;;;;;;;4384536;32;316787;-85
2023/11/16 10:24:40;;;;;;;7.70;5.57;;;;;;;;;;4399133;32;316741;-86
2023/11/16 10:27:09;;;;;;;6.13;4.67;;;;;;;;;;4386484;32;316757;-87
2023/11/16 10:29:36;;;;;;;8.10;5.97;;;;;;;;;;4397400;32;316533;-87
2023/11/16 10:32:04;;;;;;;9.10;5.20;;;;;;;;;;4387701;32;317427;-87
2023/11/16 10:34:31;;;;;;;3.13;2.80;;;;;;;;;;4395647;32;349283;-87
2023/11/16 10:37:00;;;;;;;3.87;2.53;;;;;;;;;;4397779;32;317211;-83
2023/11/16 10:39:29;;;;;;;1.77;1.00;;;;;;;;;;4383395;32;416647;-86
2023/11/16 10:41:58;;;;;;;5.53;1.23;;;;;;;;;;4398172;32;317150;-84
2023/11/16 10:44:26;;;;;;;4.35;1.33;;;;;;;;;;4386571;32;317512;-84
2023/11/16 10:46:56;;;;;;;1.45;1.35;;;;;;;;;;4391909;32;317647;-84
2023/11/16 10:49:23;;;;;;;2.00;1.27;;;;;;;;;;4371379;32;317454;-83
2023/11/16 10:51:54;;;;;;;2.27;1.00;;;;;;;;;;4396051;32;317235;-84
2023/11/16 10:54:25;;;;;;;3.80;1.10;;;;;;;;;;4386893;32;317138;-84
2023/11/16 10:56:54;;;;;;;2.73;1.30;;;;;;;;;;4398009;32;317218;-84
2023/11/16 10:59:23;;;;;;;3.15;1.40;;;;;;;;;;4387418;32;316441;-84
2023/11/16 11:01:50;;;;;;;8.70;1.03;;;;;;;;;;4401330;32;317364;-84
2023/11/16 11:04:18;;;;;;;1.67;1.00;;;;;;;;;;4394568;32;317536;-84
2023/11/16 11:06:46;;;;;;;2.55;1.23;;;;;;;;;;4395505;32;316449;-84
2023/11/16 11:09:15;;;;;;;4.67;1.23;;;;;;;;;;4387089;32;317187;-84
2023/11/16 11:11:47;;;;;;;1.02;0.90;;;;;;;;;;4397585;32;317620;-84
2023/11/16 11:14:25;;;;;;;2.53;0.85;;;;;;;;;;4387629;32;317211;-84
2023/11/16 11:16:52;;;;;;;1.90;1.50;;;;;;;;;;4396513;32;317230;-84
2023/11/16 11:19:26;;;;;;;6.53;3.10;;;;;;;;;;4384942;32;317557;-84
2023/11/16 11:21:53;;;;;;;2.12;1.05;;;;;;;;;;4397404;32;317094;-84
2023/11/16 11:24:19;;;;;;;2.45;1.17;;;;;;;;;;4387147;32;317653;-84
2023/11/16 11:26:48;;;;;;;1.87;1.10;;;;;;;;;;4397659;32;317695;-84
2023/11/16 11:29:17;;;;;;;1.62;1.02;;;;;;;;;;4389927;32;317391;-84
2023/11/16 11:31:51;;;;;;;1.27;0.82;;;;;;;;;;4412047;32;317022;-84
2023/11/16 11:34:18;;;;;;;1.40;1.00;;;;;;;;;;4385792;32;317123;-84
2023/11/16 11:36:44;;;;;;;2.15;1.20;;;;;;;;;;4397811;32;317429;-84
2023/11/16 11:39:14;;;;;;;0.98;0.90;;;;;;;;;;4386910;32;317426;-84
2023/11/16 11:41:48;;;;;;;1.10;1.00;;;;;;;;;;4384414;32;317325;-84
2023/11/16 11:44:15;;;;;;;2.10;1.52;;;;;;;;;;4373155;32;317088;-84
2023/11/16 11:46:43;;;;;;;2.47;1.20;;;;;;;;;;4389561;32;318146;-86
2023/11/16 11:49:15;;;;;;;2.33;1.17;;;;;;;;;;4372736;32;317671;-84
2023/11/16 11:51:45;;;;;;;2.80;1.50;;;;;;;;;;4394966;32;317135;-84
2023/11/16 11:54:13;;;;;;;1.42;1.30;;;;;;;;;;4387607;32;317077;-85
2023/11/16 11:56:44;;;;;;;2.90;1.63;;;;;;;;;;4401116;32;316674;-84
2023/11/16 11:59:11;;;;;;;2.90;1.07;;;;;;;;;;4391844;32;317259;-84
2023/11/16 12:01:38;;;;;;;1.90;1.40;;;;;;;;;;4399154;32;317303;-84
2023/11/16 12:04:08;;;;;;;1.73;1.30;;;;;;;;;;4386592;32;352903;-85
2023/11/16 12:06:35;;;;;;;1.33;1.10;;;;;;;;;;4399187;32;317054;-84
2023/11/16 12:09:03;;;;;;;1.03;0.93;;;;;;;;;;4398877;32;317012;-85
2023/11/16 12:11:32;;;;;;;5.00;2.17;;;;;;;;;;4398889;32;317168;-84
2023/11/16 12:14:01;;;;;;;3.65;3.12;;;;;;;;;;4400187;32;317026;-84
2023/11/16 12:16:32;;;;;;;8.67;6.60;;;;;;;;;;4386669;32;416507;-84
2023/11/16 12:18:59;;;;;;;8.20;6.10;;;;;;;;;;4403696;32;317079;-83
2023/11/16 12:21:28;;;;;;;3.90;3.07;;;;;;;;;;4394051;32;317035;-84
2023/11/16 12:23:57;;;;;;;1.87;1.57;;;;;;;;;;4399187;32;317073;-83
2023/11/16 12:26:28;;;;;;;4.77;1.30;;;;;;;;;;4387005;32;317290;-83
2023/11/16 12:28:56;;;;;;;3.93;3.40;;;;;;;;;;4383522;32;352541;-83
2023/11/16 12:31:26;;;;;;;5.40;3.47;;;;;;;;;;4385929;32;334403;-83
2023/11/16 12:33:54;;;;;;;6.50;4.07;;;;;;;;;;4398371;32;317133;-83
2023/11/16 12:36:22;;;;;;;27.90;14.17;;;;;;;;;;4389419;32;317215;-83
2023/11/16 12:38:50;;;;;;;135.83;76.13;;;;;;;;;;4398471;32;319257;-84
2023/11/16 12:41:17;;;;;;;25.83;16.00;;;;;;;;;;4376662;32;354114;-84
2023/11/16 12:43:45;;;;;;;28.97;17.00;;;;;;;;;;4396203;32;319528;-84
2023/11/16 12:46:14;;;;;;;18.13;11.80;;;;;;;;;;4392818;32;319079;-84
2023/11/16 12:48:42;;;;;;;6.93;4.47;;;;;;;;;;4397251;32;319252;-83
2023/11/16 12:51:13;;;;;;;2.43;2.20;;;;;;;;;;4388631;32;317188;-83
2023/11/16 12:53:42;;;;;;;9.33;4.70;;;;;;;;;;4397686;32;317095;-83
2023/11/16 12:56:15;;;;;;;9.70;5.80;;;;;;;;;;4374316;32;317307;-83
2023/11/16 12:58:42;;;;;;;11.13;9.07;;;;;;;;;;4397878;32;317914;-83
2023/11/16 13:01:12;;;;;;;6.13;4.30;;;;;;;;;;4386512;32;318182;-83
2023/11/16 13:03:38;;;;;;;8.10;5.43;;;;;;;;;;4398984;32;316722;-83
2023/11/16 13:06:07;;;;;;;16.57;9.47;;;;;;;;;;4389703;32;317233;-84
2023/11/16 13:08:34;;;;;;;46.63;26.17;;;;;;;;;;4399514;32;318047;-84
2023/11/16 13:11:01;;;;;;;84.87;46.60;;;;;;;;;;4396947;32;319292;-86
2023/11/16 13:13:29;;;;;;;33.37;17.00;;;;;;;;;;4384730;32;420314;-84
2023/11/16 13:15:57;;;;;;;80.43;39.30;;;;;;;;;;4398313;32;319059;-84
2023/11/16 13:18:24;;;;;;;21.17;9.10;;;;;;;;;;4389116;32;319391;-86
2023/11/16 13:20:51;;;;;;;48.77;25.17;;;;;;;;;;4399027;32;339263;-86
2023/11/16 13:23:18;;;;;;;17.03;9.33;;;;;;;;;;4389018;32;319598;-86
2023/11/16 13:25:44;;;;;;;4.63;2.90;;;;;;;;;;4402366;32;318034;-87
2023/11/16 13:28:11;;;;;;;10.37;5.63;;;;;;;;;;4387863;32;317448;-86
2023/11/16 13:30:40;;;;;;;74.67;38.83;;;;;;;;;;4396530;32;354552;-86
2023/11/16 13:33:07;;;;;;;58.50;30.37;;;;;;;;;;4389012;32;319910;-87
2023/11/16 13:35:35;;;;;;;124.67;61.73;;;;;;;;;;4397665;32;319321;-83
2023/11/16 13:38:01;;;;;;;72.37;37.03;;;;;;;;;;4399006;32;319813;-84
2023/11/16 13:40:29;;;;;;;27.43;15.13;;;;;;;;;;4385143;32;420252;-84
2023/11/16 13:42:55;;;;;;;38.17;20.97;;;;;;;;;;4386911;32;319427;-84
2023/11/16 13:45:22;;;;;;;27.43;14.83;;;;;;;;;;4379826;32;319827;-85
2023/11/16 13:47:50;;;;;;;21.37;11.57;;;;;;;;;;4396871;32;319442;-84
2023/11/16 13:50:17;;;;;;;26.27;8.50;;;;;;;;;;4386421;32;319712;-84
2023/11/16 13:52:45;;;;;;;17.30;6.60;;;;;;;;;;4386419;32;318269;-84
2023/11/16 13:55:13;;;;;;;5.97;3.57;;;;;;;;;;4382714;32;326002;-84
2023/11/16 13:57:41;;;;;;;35.67;17.10;;;;;;;;;;4396117;32;348937;-85
2023/11/16 14:00:10;;;;;;;52.07;28.63;;;;;;;;;;4388337;32;319434;-85
2023/11/16 14:02:37;;;;;;;10.20;5.40;;;;;;;;;;4398630;32;318513;-86
2023/11/16 14:05:08;;;;;;;46.97;23.23;;;;;;;;;;4387434;32;318173;-85
2023/11/16 14:07:36;;;;;;;47.93;20.17;;;;;;;;;;4398665;32;319327;-86
2023/11/16 14:10:04;;;;;;;47.13;26.17;;;;;;;;;;4387131;32;349401;-85
2023/11/16 14:12:31;;;;;;;33.83;19.47;;;;;;;;;;4394076;32;319581;-86
2023/11/16 14:14:58;;;;;;;10.80;6.70;;;;;;;;;;4389428;32;357347;-86
2023/11/16 14:17:25;;;;;;;13.43;6.73;;;;;;;;;;4391728;32;322483;-86
2023/11/16 14:19:52;;;;;;;12.57;8.50;;;;;;;;;;4400220;32;317756;-87
2023/11/16 14:22:21;;;;;;;15.03;9.60;;;;;;;;;;4387648;32;318701;-86
2023/11/16 14:24:48;;;;;;;11.53;7.53;;;;;;;;;;4397813;32;318170;-86
2023/11/16 14:27:15;;;;;;;7.33;4.63;;;;;;;;;;4386683;32;318213;-86
2023/11/16 14:29:42;;;;;;;11.33;5.43;;;;;;;;;;4390603;32;317617;-81